Barnum, Texas
Current Conditions -  °F | °C
As of 8:53 PM on Friday 19 Dec 2014 (Local Time) from KLFK Reporting Station
Overcast Overcast  
Wind Chill: 51°   Ceiling: 500
Heat Index: 51°   Visibility: 7mi
Dew Point: 47°   Wind: 7mph
Humidity: 86%   Direction: 20°NNE
Pressure: 30.15"   Gusts: NA
Location:  31.024°N, 94.7686°W
Report Text: KLFK 200253Z AUTO 02006KT 7SM OVC005 11/08 A3015 RMK AO2 SLP208 60000 T01060083 51015
Loading
Personal Weather Stations






























Interactive Weather Map New forecast layout! Learn more

10-Day Weather Forecast

Advertisements
Track Severe Weather on mobile